Time;durP1;ratioP1;P1;durP2;ratioP2;P2;SDS_P1;SDS_P2;PMS_P1;PMS_P2;Temp;Humidity;BMP_temperature;BMP_pressure;BME280_temperature;BME280_humidity;BME280_pressure;Samples;Min_cycle;Max_cycle;Signal;HPM_P1;HPM_P2
2021/08/25 00:02:37;;;;;;;;;10.40;9.00;;;;;17.51;56.75;99354.59;6019263;28;97104;-60
2021/08/25 00:05:41;;;;;;;;;10.00;9.00;;;;;17.48;57.11;99346.94;6019718;29;98067;-59
2021/08/25 00:08:46;;;;;;;;;9.00;8.00;;;;;17.48;57.27;99346.94;6020528;29;97052;-59
2021/08/25 00:11:49;;;;;;;;;9.33;9.00;;;;;17.43;57.10;99349.59;6020528;29;97452;-59
2021/08/25 00:14:52;;;;;;;;;9.60;9.00;;;;;17.42;56.98;99342.50;6019759;28;96636;-60
2021/08/25 00:17:55;;;;;;;;;8.00;8.00;;;;;17.20;57.20;99320.72;6016396;29;97140;-61
2021/08/25 00:20:59;;;;;;;;;10.20;9.80;;;;;17.36;57.15;99338.88;6019760;29;96628;-60
2021/08/25 00:24:04;;;;;;;;;10.75;9.75;;;;;17.28;56.72;99334.72;6017763;29;97508;-60
2021/08/25 00:27:07;;;;;;;;;8.00;8.00;;;;;17.30;57.08;99337.16;6018819;29;97084;-60
2021/08/25 00:30:11;;;;;;;;;9.00;9.00;;;;;17.25;56.87;99331.69;6024791;28;97496;-60
2021/08/25 00:33:15;;;;;;;;;9.00;8.00;;;;;17.03;57.06;99301.72;6030288;28;96543;-60
2021/08/25 00:36:18;;;;;;;;;9.20;8.00;;;;;17.09;57.34;99332.56;6017944;29;98136;-60
2021/08/25 00:39:23;;;;;;;;;10.75;9.75;;;;;17.13;57.32;99333.69;6019290;29;97246;-59
2021/08/25 00:42:27;;;;;;;;;10.40;9.00;;;;;17.12;57.31;99326.59;6019808;29;96377;-59
2021/08/25 00:45:30;;;;;;;;;9.00;9.00;;;;;17.11;57.38;99314.88;6020474;29;97497;-59
2021/08/25 00:48:33;;;;;;;;;12.50;11.00;;;;;17.07;57.17;99300.13;6019045;29;97468;-59
2021/08/25 00:51:37;;;;;;;;;11.00;9.00;;;;;17.12;57.38;99313.81;6019266;29;97139;-60
2021/08/25 00:54:42;;;;;;;;;10.00;9.00;;;;;17.09;57.44;99318.94;6018102;29;97481;-59
2021/08/25 00:57:46;;;;;;;;;11.20;10.00;;;;;17.00;57.75;99307.69;6017409;28;97423;-61
2021/08/25 01:01:02;;;;;;;;;12.00;12.00;;;;;17.04;57.61;99306.09;6015483;29;99248;-60
2021/08/25 01:04:14;;;;;;;;;13.00;12.00;;;;;17.08;57.49;99306.41;6019012;29;96464;-58
2021/08/25 01:07:18;;;;;;;;;14.00;12.00;;;;;17.12;57.39;99305.63;6015210;28;97305;-58
2021/08/25 01:10:25;;;;;;;;;12.00;11.00;;;;;17.12;57.41;99312.97;6010767;29;97439;-61
2021/08/25 01:13:28;;;;;;;;;11.00;11.00;;;;;17.16;57.20;99304.03;6019334;29;97281;-60
2021/08/25 01:16:32;;;;;;;;;11.60;11.40;;;;;17.18;56.97;99306.53;6021650;28;97462;-60
2021/08/25 01:19:46;;;;;;;;;9.80;8.40;;;;;17.15;56.76;99299.66;6021340;28;96618;-60
2021/08/25 01:22:50;;;;;;;;;15.00;12.00;;;;;17.15;56.67;99302.38;6023345;28;97468;-59
2021/08/25 01:25:58;;;;;;;;;13.00;12.00;;;;;17.15;57.00;99294.22;6022763;29;97628;-59
2021/08/25 01:29:03;;;;;;;;;11.00;10.40;;;;;17.14;56.82;99291.75;6022272;29;97427;-60
2021/08/25 01:32:08;;;;;;;;;14.00;12.00;;;;;17.10;56.86;99294.19;6020014;29;96765;-60
2021/08/25 01:35:12;;;;;;;;;10.60;10.00;;;;;17.05;56.88;99291.41;6022761;28;97024;-59
2021/08/25 01:38:25;;;;;;;;;12.80;9.80;;;;;17.02;56.89;99297.34;6021799;29;97405;-60
2021/08/25 01:41:28;;;;;;;;;12.40;11.00;;;;;17.03;56.35;99298.97;6021723;29;97730;-60
2021/08/25 01:44:31;;;;;;;;;13.00;12.00;;;;;17.02;56.42;99291.06;6022972;29;97218;-60
2021/08/25 02:23:14;;;;;;;;;12.00;11.00;;;;;16.40;56.59;99278.50;6012702;29;96906;-60
2021/08/25 02:26:17;;;;;;;;;10.00;9.00;;;;;16.32;56.70;99270.75;6019862;28;97405;-60
2021/08/25 02:29:20;;;;;;;;;10.33;10.00;;;;;16.28;56.40;99272.31;6021591;28;97291;-59
2021/08/25 02:32:24;;;;;;;;;11.00;10.00;;;;;16.29;56.68;99256.81;6021552;28;96442;-58
2021/08/25 02:35:27;;;;;;;;;11.20;10.00;;;;;16.31;56.82;99262.84;6022023;28;97546;-58
2021/08/25 02:38:32;;;;;;;;;13.00;12.00;;;;;16.26;57.10;99263.59;6019534;29;97059;-60
2021/08/25 02:41:36;;;;;;;;;12.00;12.00;;;;;16.31;56.75;99260.97;6021318;28;97474;-60
2021/08/25 02:44:40;;;;;;;;;11.00;10.00;;;;;16.28;56.71;99249.72;6020302;28;97527;-59
2021/08/25 02:47:43;;;;;;;;;11.00;9.60;;;;;16.18;57.05;99244.13;6021838;29;97528;-58
2021/08/25 02:50:47;;;;;;;;;14.00;13.00;;;;;16.29;56.98;99259.53;6020790;29;97012;-60
2021/08/25 02:53:52;;;;;;;;;11.00;11.00;;;;;16.21;57.50;99255.38;6012670;29;97473;-60
2021/08/25 02:56:55;;;;;;;;;13.00;12.00;;;;;16.22;57.51;99257.00;6020948;29;97441;-58
2021/08/25 02:59:58;;;;;;;;;14.00;12.25;;;;;16.27;57.56;99253.53;6020111;29;96937;-59
2021/08/25 03:03:02;;;;;;;;;13.60;13.00;;;;;16.32;57.62;99250.91;6015829;29;99396;-59
2021/08/25 03:06:06;;;;;;;;;13.00;13.00;;;;;16.22;57.50;99250.75;6018168;29;98391;-58
2021/08/25 03:09:10;;;;;;;;;13.75;12.00;;;;;16.26;57.26;99241.84;6020821;29;97736;-59
2021/08/25 03:12:14;;;;;;;;;13.00;11.60;;;;;16.27;57.50;99253.53;6021277;29;98938;-58
2021/08/25 03:15:17;;;;;;;;;14.00;13.00;;;;;16.25;57.37;99258.41;6020658;29;96619;-58
2021/08/25 03:18:21;;;;;;;;;14.20;12.20;;;;;16.30;57.25;99245.69;6019866;28;96716;-60
2021/08/25 03:21:24;;;;;;;;;15.60;13.00;;;;;16.30;57.18;99253.03;6020150;28;96447;-60
2021/08/25 03:24:29;;;;;;;;;11.00;11.00;;;;;16.27;57.04;99256.25;6017979;29;97838;-59
2021/08/25 03:27:32;;;;;;;;;13.60;12.80;;;;;16.32;56.94;99257.13;6006905;29;97191;-59
2021/08/25 03:30:35;;;;;;;;;13.00;11.00;;;;;16.35;56.76;99255.81;5999496;29;97889;-60
2021/08/25 03:33:39;;;;;;;;;14.00;12.00;;;;;16.36;56.81;99247.44;5984268;29;98661;-59
2021/08/25 03:36:42;;;;;;;;;12.00;11.00;;;;;16.38;56.68;99256.16;6016122;29;96650;-59
2021/08/25 03:39:47;;;;;;;;;12.60;11.00;;;;;16.34;56.74;99262.34;6002485;29;97396;-60
2021/08/25 03:42:50;;;;;;;;;14.00;13.00;;;;;16.29;56.83;99257.66;6020588;29;97578;-60
2021/08/25 03:45:53;;;;;;;;;16.00;14.00;;;;;16.32;56.89;99264.50;6008142;29;96984;-60
2021/08/25 03:48:57;;;;;;;;;12.00;11.00;;;;;16.40;56.45;99253.19;6004381;29;96512;-60
2021/08/25 03:52:00;;;;;;;;;10.00;9.80;;;;;16.46;56.42;99252.19;5997263;29;96700;-58
2021/08/25 03:55:06;;;;;;;;;13.00;11.40;;;;;16.46;56.01;99247.56;6010617;29;96422;-58
2021/08/25 03:58:09;;;;;;;;;15.00;13.00;;;;;16.51;56.02;99248.72;5996702;29;98639;-60
2021/08/25 04:01:13;;;;;;;;;10.40;9.00;;;;;16.59;55.95;99245.56;5985373;29;98440;-60
2021/08/25 04:04:18;;;;;;;;;12.20;11.00;;;;;16.63;55.75;99249.44;5987239;29;96694;-61
2021/08/25 04:07:21;;;;;;;;;12.00;10.60;;;;;16.64;55.62;99256.53;5998622;29;97042;-60
2021/08/25 04:10:26;;;;;;;;;13.00;12.50;;;;;16.69;55.51;99249.25;5999919;29;97465;-61
2021/08/25 04:13:29;;;;;;;;;13.00;12.00;;;;;16.67;55.50;99245.97;5994839;29;96683;-61
2021/08/25 04:16:32;;;;;;;;;12.00;10.50;;;;;16.70;55.58;99244.66;6015505;29;97068;-59
2021/08/25 04:19:36;;;;;;;;;11.00;9.40;;;;;16.63;55.18;99238.53;6007762;29;96598;-59
2021/08/25 04:22:39;;;;;;;;;13.00;12.00;;;;;16.67;55.32;99237.78;6017929;29;97159;-60
2021/08/25 04:25:43;;;;;;;;;10.80;10.20;;;;;16.68;55.42;99241.34;6017998;29;96555;-61
2021/08/25 04:28:47;;;;;;;;;12.00;11.00;;;;;16.69;55.22;99230.22;6011659;29;96508;-59
2021/08/25 04:31:51;;;;;;;;;10.80;9.80;;;;;16.71;55.19;99232.69;5985816;29;96942;-59
2021/08/25 04:34:54;;;;;;;;;11.00;10.00;;;;;16.77;55.10;99231.66;6005167;29;96647;-60
2021/08/25 04:37:57;;;;;;;;;11.00;11.00;;;;;16.77;55.30;99228.94;6009784;29;96453;-60
2021/08/25 04:41:02;;;;;;;;;13.00;12.00;;;;;16.74;55.14;99224.00;5991851;29;97307;-60
2021/08/25 04:44:06;;;;;;;;;12.60;12.00;;;;;16.70;55.31;99226.41;5995787;29;96469;-58
2021/08/25 04:47:09;;;;;;;;;12.00;11.60;;;;;16.70;55.34;99220.16;6009823;29;96612;-59
2021/08/25 04:50:12;;;;;;;;;15.00;12.00;;;;;16.59;55.36;99196.59;6004818;29;97638;-59
2021/08/25 04:53:16;;;;;;;;;12.80;11.40;;;;;16.81;55.53;99227.38;6017681;29;97515;-59
2021/08/25 04:56:21;;;;;;;;;11.40;10.40;;;;;16.78;55.55;99225.97;6014913;29;97280;-58
2021/08/25 04:59:24;;;;;;;;;10.80;10.00;;;;;16.82;55.74;99235.25;5981247;29;98941;-59
2021/08/25 05:02:27;;;;;;;;;11.00;11.00;;;;;16.95;55.68;99222.34;5999755;29;96682;-62
2021/08/25 05:05:31;;;;;;;;;11.00;9.00;;;;;17.01;55.42;99230.31;6006788;29;97455;-58
2021/08/25 05:08:34;;;;;;;;;11.60;11.40;;;;;16.97;55.42;99223.72;5982935;29;97575;-60
2021/08/25 05:11:39;;;;;;;;;11.00;9.80;;;;;17.03;55.50;99221.88;5999493;29;96677;-59
2021/08/25 05:14:42;;;;;;;;;12.00;10.40;;;;;17.10;55.58;99226.06;6007522;29;97594;-60
2021/08/25 05:17:45;;;;;;;;;12.25;11.00;;;;;17.21;55.67;99226.97;5994366;29;97503;-60
2021/08/25 05:20:49;;;;;;;;;12.00;10.33;;;;;17.27;55.21;99221.34;5994694;29;97260;-59
2021/08/25 05:23:54;;;;;;;;;14.00;12.00;;;;;17.35;55.22;99219.25;5992309;28;97860;-59
2021/08/25 05:26:58;;;;;;;;;9.25;9.00;;;;;17.40;54.68;99222.81;6021913;28;97541;-59
2021/08/25 05:30:02;;;;;;;;;10.00;8.60;;;;;17.43;54.40;99221.50;6022949;28;97208;-60
2021/08/25 05:33:05;;;;;;;;;10.00;8.80;;;;;17.49;55.01;99223.19;6021752;28;97796;-60
2021/08/25 05:36:10;;;;;;;;;10.50;8.50;;;;;17.64;54.72;99213.25;6017051;28;96729;-58
2021/08/25 05:39:14;;;;;;;;;9.20;8.00;;;;;17.83;53.71;99221.91;6013165;28;97396;-59
2021/08/25 05:42:19;;;;;;;;;11.00;10.00;;;;;17.96;53.89;99215.97;6020933;28;97440;-57
2021/08/25 05:45:23;;;;;;;;;10.00;10.00;;;;;18.08;53.46;99227.50;6019650;29;96782;-58
2021/08/25 05:48:26;;;;;;;;;8.25;8.00;;;;;18.13;53.39;99210.38;6022226;28;96541;-59
2021/08/25 05:51:29;;;;;;;;;9.00;9.00;;;;;18.22;53.61;99197.88;6021045;29;97083;-59
2021/08/25 05:54:33;;;;;;;;;8.20;7.20;;;;;18.37;53.52;99205.34;6018892;28;97492;-62
2021/08/25 05:57:45;;;;;;;;;10.00;9.00;;;;;18.60;52.65;99207.66;6022683;28;96911;-58
2021/08/25 06:00:48;;;;;;;;;7.20;7.00;;;;;18.77;52.25;99215.66;6021763;28;97463;-59
2021/08/25 06:03:52;;;;;;;;;9.00;8.60;;;;;18.87;51.96;99212.97;6021363;29;96590;-61
2021/08/25 06:06:55;;;;;;;;;10.50;10.00;;;;;19.10;51.12;99217.97;6020363;28;97407;-60
2021/08/25 06:09:58;;;;;;;;;11.00;9.00;;;;;19.38;50.95;99222.13;6018717;29;96692;-60
2021/08/25 06:13:03;;;;;;;;;9.25;9.00;;;;;19.59;49.67;99232.06;6020755;29;97585;-59
2021/08/25 06:16:08;;;;;;;;;10.20;8.60;;;;;19.81;49.70;99224.38;6019944;28;96678;-59
2021/08/25 06:19:11;;;;;;;;;9.00;8.40;;;;;20.05;49.07;99226.56;6019300;28;96886;-59
2021/08/25 06:22:14;;;;;;;;;9.50;8.00;;;;;20.23;48.62;99226.81;6019329;29;96633;-60
2021/08/25 06:25:18;;;;;;;;;10.00;8.60;;;;;20.24;48.63;99209.28;6019016;28;97494;-60
2021/08/25 06:28:22;;;;;;;;;10.60;8.80;;;;;20.40;48.03;99233.94;6018029;29;96968;-58
2021/08/25 06:31:26;;;;;;;;;10.40;8.00;;;;;20.66;47.69;99227.31;6018490;29;96922;-58
2021/08/25 06:34:29;;;;;;;;;9.80;8.60;;;;;20.84;47.78;99231.34;6019146;28;97486;-60
2021/08/25 06:37:32;;;;;;;;;8.00;7.00;;;;;21.01;47.39;99223.59;6020127;28;98127;-59
2021/08/25 06:40:36;;;;;;;;;8.00;8.00;;;;;20.98;47.37;99226.88;6015009;29;97424;-59
2021/08/25 06:43:40;;;;;;;;;11.00;9.00;;;;;21.04;46.63;99226.59;6017243;29;97229;-61
2021/08/25 06:46:44;;;;;;;;;8.00;8.00;;;;;21.23;45.82;99224.06;6017210;29;98722;-60
2021/08/25 06:49:47;;;;;;;;;9.00;8.40;;;;;21.33;44.71;99218.50;6017112;28;97467;-60
2021/08/25 06:52:50;;;;;;;;;11.00;9.00;;;;;21.43;44.58;99221.19;6018680;28;97458;-60
2021/08/25 06:55:54;;;;;;;;;8.75;6.75;;;;;21.44;44.12;99217.34;6018149;28;97207;-61
2021/08/25 06:58:59;;;;;;;;;9.00;9.00;;;;;21.57;44.24;99218.63;6017963;28;97634;-61
2021/08/25 07:02:02;;;;;;;;;9.75;8.75;;;;;21.66;43.71;99211.41;6017987;29;96744;-60
2021/08/25 07:05:07;;;;;;;;;9.40;8.00;;;;;21.81;43.57;99189.34;6018801;28;97077;-60
2021/08/25 07:08:10;;;;;;;;;9.00;7.80;;;;;22.17;42.87;99208.28;6017679;29;96738;-59
2021/08/25 07:11:14;;;;;;;;;7.00;6.25;;;;;22.40;42.19;99211.03;6016856;29;96703;-58
2021/08/25 07:14:19;;;;;;;;;9.00;7.00;;;;;22.39;41.55;99181.09;6025724;28;97336;-61
2021/08/25 07:17:22;;;;;;;;;9.00;9.00;;;;;22.69;41.68;99213.75;6018654;28;96645;-62
2021/08/25 07:20:26;;;;;;;;;9.00;7.00;;;;;22.70;41.16;99201.66;6017853;28;96867;-61
2021/08/25 07:23:29;;;;;;;;;9.00;8.40;;;;;22.93;40.90;99200.00;6013950;29;97079;-61
2021/08/25 07:26:32;;;;;;;;;9.00;8.00;;;;;23.28;40.62;99195.94;6017173;28;96677;-60
2021/08/25 07:29:37;;;;;;;;;7.50;6.00;;;;;23.52;40.15;99198.63;6016377;29;97501;-61
2021/08/25 07:32:40;;;;;;;;;10.00;8.00;;;;;23.59;38.59;99199.09;6013437;29;96689;-60
2021/08/25 07:35:46;;;;;;;;;9.25;9.00;;;;;23.56;37.93;99206.00;6015290;28;97373;-60
2021/08/25 07:38:50;;;;;;;;;9.00;8.00;;;;;23.46;38.56;99197.06;6023969;28;96715;-60
2021/08/25 07:41:54;;;;;;;;;9.40;8.00;;;;;23.43;37.49;99184.72;6019111;29;97510;-60
2021/08/25 07:44:58;;;;;;;;;8.00;6.50;;;;;23.57;39.50;99199.38;6018803;29;97255;-61
2021/08/25 07:48:02;;;;;;;;;12.80;11.00;;;;;23.70;38.21;99190.34;6013417;29;97455;-60
2021/08/25 07:51:09;;;;;;;;;9.00;8.00;;;;;24.03;37.51;99184.88;6018811;29;97477;-59
2021/08/25 07:54:12;;;;;;;;;9.00;8.00;;;;;24.31;36.07;99183.00;6017834;28;97411;-61
2021/08/25 07:57:15;;;;;;;;;8.00;7.00;;;;;24.36;36.19;99180.97;6018096;29;97253;-61
2021/08/25 08:00:20;;;;;;;;;12.00;9.50;;;;;24.82;37.43;99177.28;6018710;29;96615;-61
2021/08/25 08:03:24;;;;;;;;;11.20;10.20;;;;;24.70;35.76;99165.97;6016485;29;97971;-59
2021/08/25 08:06:27;;;;;;;;;9.00;8.00;;;;;24.86;35.53;99161.75;6018816;29;97509;-59
2021/08/25 08:09:31;;;;;;;;;10.40;9.40;;;;;24.79;35.08;99167.69;6033852;28;96866;-61
2021/08/25 08:12:34;;;;;;;;;7.80;7.20;;;;;24.59;35.96;99157.88;6018377;29;96686;-60
2021/08/25 08:15:39;;;;;;;;;10.80;9.20;;;;;24.26;36.59;99163.81;6012522;29;97169;-61
2021/08/25 08:54:21;;;;;;;;;9.00;8.00;;;;;22.64;38.23;99120.34;6018228;29;98608;-59
2021/08/25 08:57:24;;;;;;;;;10.00;8.60;;;;;22.64;38.26;99119.53;6020510;28;97467;-61
2021/08/25 09:00:30;;;;;;;;;6.80;6.20;;;;;22.52;39.24;99116.41;6021819;29;96573;-59
2021/08/25 09:03:36;;;;;;;;;10.40;9.60;;;;;22.44;39.34;99113.19;6021025;29;96659;-59
2021/08/25 09:06:44;;;;;;;;;10.00;8.40;;;;;22.37;39.64;99104.50;6015442;29;97195;-59
2021/08/25 09:09:58;;;;;;;;;10.50;9.00;;;;;22.40;39.22;99111.31;6019521;29;97397;-60
2021/08/25 09:13:02;;;;;;;;;9.75;8.75;;;;;22.37;38.49;99115.50;6022216;28;96986;-61
2021/08/25 09:16:06;;;;;;;;;8.00;8.00;;;;;22.49;37.74;99098.56;6022470;28;96739;-58
2021/08/25 09:19:11;;;;;;;;;8.75;8.00;;;;;22.83;36.73;99098.41;6018955;29;96772;-60
2021/08/25 09:22:19;;;;;;;;;8.00;7.00;;;;;23.10;36.62;99098.56;6022146;29;96900;-59
2021/08/25 09:25:33;;;;;;;;;9.00;8.00;;;;;23.44;36.88;99086.47;6021803;28;97345;-59
2021/08/25 09:28:37;;;;;;;;;10.50;9.00;;;;;23.70;34.37;99085.75;6021697;28;97462;-59
2021/08/25 09:31:43;;;;;;;;;11.00;9.00;;;;;23.96;33.00;99088.84;6018620;28;96837;-59
2021/08/25 09:34:46;;;;;;;;;10.00;8.60;;;;;23.95;33.32;99078.97;6020065;28;97492;-59
2021/08/25 09:37:54;;;;;;;;;12.25;10.00;;;;;23.93;34.19;99061.13;6020901;28;96936;-59
2021/08/25 09:41:01;;;;;;;;;9.80;8.00;;;;;24.07;33.10;99079.28;6024239;28;96904;-58
2021/08/25 09:44:16;;;;;;;;;8.80;7.80;;;;;24.13;34.16;99082.75;6018730;29;97453;-59
2021/08/25 09:47:50;;;;;;;;;10.00;9.00;;;;;24.06;32.79;99077.66;6019986;29;97583;-61
2021/08/25 09:50:58;;;;;;;;;8.00;7.40;;;;;23.92;33.01;99076.81;6009074;29;96696;-59
2021/08/25 09:54:05;;;;;;;;;10.20;8.20;;;;;23.80;33.45;99076.47;6012865;29;97322;-60
2021/08/25 09:57:10;;;;;;;;;9.00;8.20;;;;;23.83;33.09;99073.16;6015199;29;97572;-58
2021/08/25 10:00:14;;;;;;;;;8.00;7.00;;;;;23.82;32.97;99066.00;6013444;29;96809;-60
2021/08/25 10:03:17;;;;;;;;;10.80;8.80;;;;;23.83;32.69;99062.13;6015687;28;98280;-60
2021/08/25 10:06:24;;;;;;;;;7.00;7.00;;;;;23.85;32.04;99061.84;6005554;29;97302;-60
2021/08/25 10:09:28;;;;;;;;;6.00;6.00;;;;;23.91;33.03;99058.66;6006499;29;96938;-61
2021/08/25 10:12:33;;;;;;;;;9.00;8.00;;;;;24.06;33.32;99061.13;6011340;29;97032;-61
2021/08/25 10:15:47;;;;;;;;;8.60;7.60;;;;;24.21;32.24;99050.94;5996720;29;97463;-61
2021/08/25 10:18:50;;;;;;;;;8.00;7.00;;;;;24.45;31.25;99046.84;6004116;29;97517;-61
2021/08/25 10:21:55;;;;;;;;;7.80;6.80;;;;;24.59;30.45;99050.38;6019089;28;97309;-60
2021/08/25 10:25:16;;;;;;;;;8.00;7.00;;;;;24.74;30.45;99056.69;6020868;28;97156;-60
2021/08/25 10:28:20;;;;;;;;;9.00;8.00;;;;;25.02;30.51;99042.50;6020635;29;98063;-61
2021/08/25 10:31:23;;;;;;;;;8.00;8.00;;;;;25.72;28.98;99047.41;6005974;29;96658;-59
2021/08/25 10:34:28;;;;;;;;;8.00;7.00;;;;;26.04;27.71;99034.38;6019483;28;97448;-61
2021/08/25 10:37:32;;;;;;;;;7.00;7.00;;;;;26.21;28.24;99032.50;6005980;29;97907;-60
2021/08/25 10:40:35;;;;;;;;;10.80;9.00;;;;;26.50;27.59;99020.03;6019498;28;99717;-61
2021/08/25 10:43:42;;;;;;;;;11.00;8.40;;;;;27.10;29.21;99015.38;6021162;29;96893;-60
2021/08/25 10:46:48;;;;;;;;;8.00;7.00;;;;;27.38;26.33;99021.34;6018864;29;97053;-61
2021/08/25 10:50:10;;;;;;;;;10.00;8.00;;;;;27.12;25.22;99015.06;6008480;29;97473;-60
2021/08/25 10:53:38;;;;;;;;;9.00;7.00;;;;;27.13;26.96;99019.44;6020712;28;97408;-61
2021/08/25 10:56:44;;;;;;;;;8.00;7.00;;;;;27.12;27.69;99010.31;6006618;29;97074;-59
2021/08/25 10:59:50;;;;;;;;;8.50;7.50;;;;;27.04;27.80;99002.84;6019231;29;96594;-59
2021/08/25 11:02:53;;;;;;;;;8.60;7.60;;;;;26.77;28.18;98999.59;6005703;28;96626;-60
2021/08/25 11:05:57;;;;;;;;;11.00;8.75;;;;;26.53;28.33;99003.66;6031573;28;97661;-60
2021/08/25 11:09:23;;;;;;;;;10.00;8.00;;;;;26.35;28.39;98998.38;6005552;28;96638;-59
2021/08/25 11:12:26;;;;;;;;;8.00;7.00;;;;;26.30;28.96;98989.13;6005494;28;97285;-60
2021/08/25 11:15:33;;;;;;;;;10.75;8.50;;;;;26.41;28.43;98984.09;6008751;29;98860;-60
2021/08/25 11:18:36;;;;;;;;;8.20;8.20;;;;;26.95;28.79;98984.63;5998799;29;97597;-61
2021/08/25 11:21:41;;;;;;;;;10.50;8.50;;;;;27.04;27.12;98966.06;6020867;28;97472;-59
2021/08/25 11:24:47;;;;;;;;;8.00;8.00;;;;;27.25;27.18;98971.72;6013272;29;96909;-60
2021/08/25 11:27:51;;;;;;;;;10.00;9.80;;;;;27.53;26.59;98971.03;6017120;29;97632;-61
2021/08/25 11:30:56;;;;;;;;;9.00;8.60;;;;;27.97;26.35;98966.91;6020054;28;97560;-60
2021/08/25 11:34:00;;;;;;;;;9.00;8.00;;;;;28.33;25.68;98966.41;6021163;28;97520;-60
2021/08/25 11:37:05;;;;;;;;;8.00;7.00;;;;;28.75;25.05;98950.59;6005224;28;97444;-60
2021/08/25 11:40:09;;;;;;;;;10.50;8.50;;;;;29.08;23.74;98960.91;6017871;28;96796;-61
2021/08/25 11:43:14;;;;;;;;;10.00;8.00;;;;;28.65;23.23;98956.53;6019890;29;97131;-62
2021/08/25 11:46:25;;;;;;;;;8.40;8.00;;;;;28.29;24.81;98954.38;6019696;29;97178;-60
2021/08/25 11:49:28;;;;;;;;;10.00;7.40;;;;;28.39;25.50;98948.41;6019269;28;97714;-61
2021/08/25 11:52:34;;;;;;;;;9.00;9.00;;;;;28.34;24.79;98943.09;6019864;29;97542;-60
2021/08/25 11:55:37;;;;;;;;;12.00;10.00;;;;;28.49;25.48;98949.19;6020749;29;97098;-59
2021/08/25 11:58:42;;;;;;;;;11.80;11.00;;;;;28.70;25.15;98913.88;6018349;28;97227;-61
2021/08/25 12:01:47;;;;;;;;;9.75;9.25;;;;;29.24;24.22;98943.25;6018838;29;96673;-61
2021/08/25 12:04:50;;;;;;;;;9.00;9.00;;;;;29.46;24.10;98941.25;6019585;29;101418;-60
2021/08/25 12:08:06;;;;;;;;;9.00;8.00;;;;;29.52;23.24;98931.53;6018526;28;96883;-60
2021/08/25 12:11:11;;;;;;;;;12.50;10.00;;;;;29.41;22.48;98922.03;6018961;29;98157;-60
2021/08/25 12:14:14;;;;;;;;;9.75;9.00;;;;;29.48;23.62;98925.84;6018148;29;98056;-60
2021/08/25 12:17:20;;;;;;;;;13.00;12.00;;;;;29.71;22.87;98915.91;6017847;28;96697;-59
2021/08/25 12:20:23;;;;;;;;;14.60;13.40;;;;;29.31;21.66;98914.97;6018580;29;97510;-60
2021/08/25 12:23:28;;;;;;;;;14.00;12.00;;;;;28.63;23.79;98910.88;6018148;29;97631;-59
2021/08/25 12:26:33;;;;;;;;;14.40;13.00;;;;;28.12;24.15;98904.56;6019245;29;97160;-59
2021/08/25 12:29:36;;;;;;;;;13.00;12.00;;;;;28.27;24.13;98886.53;6018945;29;97025;-59
2021/08/25 12:32:44;;;;;;;;;14.20;12.40;;;;;28.30;24.25;98899.69;6018431;28;97006;-60
2021/08/25 12:35:48;;;;;;;;;16.00;14.00;;;;;28.05;24.64;98897.94;6018514;28;96894;-61
2021/08/25 12:38:52;;;;;;;;;13.67;12.00;;;;;27.86;25.25;98871.44;6017415;28;97512;-61
2021/08/25 12:41:57;;;;;;;;;14.50;12.00;;;;;28.13;25.18;98889.56;6016608;29;98580;-60
2021/08/25 12:45:00;;;;;;;;;16.25;13.00;;;;;28.26;24.38;98887.69;6017057;29;97527;-60
2021/08/25 12:48:05;;;;;;;;;14.00;13.00;;;;;28.37;24.53;98889.72;6016089;29;96821;-60
2021/08/25 12:51:09;;;;;;;;;14.60;13.00;;;;;27.99;24.52;98872.38;6017799;29;97002;-60
2021/08/25 12:54:12;;;;;;;;;15.40;15.00;;;;;27.85;25.31;98874.56;6017034;29;96920;-60
2021/08/25 12:57:15;;;;;;;;;15.00;14.00;;;;;27.71;24.56;98874.81;6017010;29;97620;-60
2021/08/25 13:00:21;;;;;;;;;16.00;14.80;;;;;27.33;25.20;98868.44;6016065;28;97322;-63
2021/08/25 13:03:26;;;;;;;;;14.40;13.40;;;;;27.21;25.13;98863.63;6012227;28;96713;-58
2021/08/25 13:06:31;;;;;;;;;16.00;13.00;;;;;27.09;25.09;98863.50;6018923;28;97141;-58
2021/08/25 13:09:34;;;;;;;;;16.60;14.00;;;;;26.96;25.97;98856.22;6017236;29;97928;-60
2021/08/25 13:12:38;;;;;;;;;16.00;12.00;;;;;26.71;26.21;98857.88;6021750;29;96619;-61
2021/08/25 13:15:41;;;;;;;;;14.80;13.40;;;;;26.73;25.89;98856.41;6020876;28;96806;-62
2021/08/25 13:18:46;;;;;;;;;15.00;13.00;;;;;26.88;26.59;98843.25;6019803;29;97575;-61
2021/08/25 13:21:49;;;;;;;;;15.50;14.50;;;;;27.03;26.16;98840.72;6017240;29;96487;-59
2021/08/25 13:24:52;;;;;;;;;17.50;15.50;;;;;26.96;26.47;98840.44;6019232;29;96834;-61
2021/08/25 13:27:56;;;;;;;;;14.60;13.00;;;;;26.79;26.88;98826.59;6016859;29;97765;-61
2021/08/25 13:30:59;;;;;;;;;16.00;14.25;;;;;26.70;27.35;98834.13;6013898;29;96663;-61
2021/08/25 13:34:04;;;;;;;;;16.00;15.00;;;;;26.62;27.42;98832.19;6018924;28;97034;-61
2021/08/25 13:37:07;;;;;;;;;18.20;15.80;;;;;26.56;27.17;98826.03;6022057;29;96606;-61
2021/08/25 13:40:12;;;;;;;;;18.33;14.33;;;;;26.40;27.75;98819.38;6021432;29;97609;-61
2021/08/25 13:43:17;;;;;;;;;19.20;15.20;;;;;26.28;27.74;98816.47;6021609;29;97344;-59
2021/08/25 13:46:21;;;;;;;;;16.80;14.00;;;;;26.45;27.41;98810.91;6022865;29;96400;-61
2021/08/25 13:49:26;;;;;;;;;18.00;16.00;;;;;26.85;27.53;98810.66;6021904;29;97644;-61
2021/08/25 13:52:29;;;;;;;;;18.00;16.50;;;;;27.25;27.12;98797.34;6021716;28;97369;-62
2021/08/25 13:55:32;;;;;;;;;16.40;14.40;;;;;27.56;27.20;98798.63;6019729;29;98030;-61
2021/08/25 13:58:36;;;;;;;;;19.00;15.00;;;;;27.72;26.85;98804.41;6021783;29;96582;-62
2021/08/25 14:01:39;;;;;;;;;19.60;16.00;;;;;27.61;26.46;98783.00;6023262;29;97493;-59
2021/08/25 14:04:44;;;;;;;;;20.40;16.80;;;;;27.48;26.72;98799.47;6019269;29;98029;-62
2021/08/25 14:07:48;;;;;;;;;18.00;16.00;;;;;27.45;26.74;98791.88;6021167;29;96663;-62
2021/08/25 14:10:51;;;;;;;;;18.40;16.00;;;;;27.62;26.44;98799.25;6021741;29;97495;-61
2021/08/25 14:13:54;;;;;;;;;18.40;15.60;;;;;27.73;26.37;98789.41;6021714;29;97191;-59
2021/08/25 14:16:58;;;;;;;;;19.00;17.60;;;;;27.45;26.70;98782.75;6022709;29;97572;-61
2021/08/25 14:20:02;;;;;;;;;17.60;15.00;;;;;27.56;27.65;98782.03;6021809;28;97484;-59
2021/08/25 14:23:05;;;;;;;;;17.00;15.00;;;;;27.57;26.96;98782.84;6019277;29;96671;-62
2021/08/25 14:26:09;;;;;;;;;17.50;15.00;;;;;27.22;27.38;98782.19;6022029;29;97443;-62
2021/08/25 14:29:13;;;;;;;;;16.50;16.00;;;;;27.04;27.39;98762.09;6020415;29;97291;-61
2021/08/25 14:32:16;;;;;;;;;17.00;13.60;;;;;26.93;27.59;98765.56;6021276;28;97423;-60
2021/08/25 14:35:21;;;;;;;;;21.40;18.00;;;;;26.64;27.88;98761.56;6021174;29;98096;-61
2021/08/25 14:38:24;;;;;;;;;19.67;17.67;;;;;26.33;28.69;98757.44;6018117;28;97242;-61
2021/08/25 14:41:28;;;;;;;;;19.60;17.60;;;;;26.07;28.79;98738.09;6018528;29;96536;-59
2021/08/25 14:44:31;;;;;;;;;18.00;15.00;;;;;26.10;28.62;98754.00;6011526;29;96870;-62
2021/08/25 14:47:34;;;;;;;;;18.00;15.00;;;;;26.12;29.02;98740.69;6014471;28;98011;-60
2021/08/25 14:50:40;;;;;;;;;15.60;15.00;;;;;26.06;28.59;98731.75;6014853;29;98746;-60
2021/08/25 14:53:44;;;;;;;;;18.00;17.00;;;;;26.02;29.03;98733.56;6019437;28;97456;-60
2021/08/25 14:56:47;;;;;;;;;17.40;15.60;;;;;25.84;29.90;98735.53;6018995;29;97482;-62
2021/08/25 14:59:50;;;;;;;;;15.80;13.20;;;;;25.59;29.36;98719.75;6016839;29;96979;-60
2021/08/25 15:02:54;;;;;;;;;17.40;15.40;;;;;25.41;30.08;98715.34;6019199;29;97615;-59
2021/08/25 15:06:01;;;;;;;;;17.40;15.40;;;;;25.25;30.62;98714.19;6018265;28;97176;-61
2021/08/25 15:09:05;;;;;;;;;19.25;15.00;;;;;25.22;30.77;98712.03;6011834;28;97304;-57
2021/08/25 15:12:08;;;;;;;;;16.50;15.00;;;;;25.01;30.48;98707.16;6012681;29;97255;-60
2021/08/25 15:15:13;;;;;;;;;17.20;14.00;;;;;24.93;30.74;98694.13;6015310;29;97552;-60
2021/08/25 15:18:16;;;;;;;;;16.50;15.00;;;;;24.98;31.11;98702.25;6015656;29;96716;-58
2021/08/25 15:21:21;;;;;;;;;14.00;13.00;;;;;25.07;31.06;98704.25;6007499;29;97249;-60
2021/08/25 15:24:24;;;;;;;;;18.00;15.00;;;;;25.13;30.36;98700.19;6016500;29;97431;-60
2021/08/25 15:27:30;;;;;;;;;17.00;16.00;;;;;25.11;30.73;98696.94;6016062;29;97510;-59
2021/08/25 15:30:33;;;;;;;;;16.80;15.80;;;;;25.12;31.33;98695.81;6015204;29;97450;-60